Hlavní strana
METAR-TAF:

METAR-TAF

Letiště :

Örebro, Švédsko

zeměpisná šířka: 59-14N, zeměpisná délka: 015-03E, výška: 57 m

Aktuální stav počasí

Zpráva byla vytvořena před 38 minutami, v 11:50 UTC
Jihojihovýchodní vítr 13 kt, proměnlivý mezi východojihovýchodním a jižním
Teplota 20°C
Vlhkost vzduchu 23%
Tlak 1025 hPa
Viditelnost 10 km a více
Žádná oblačnost pod 1500 m, nevyskytují se cumulonimby.

METAR: ESOE 231150Z 16013KT 120V190 CAVOK 20/M02 Q1025

Čas: 14:28 (12:28 UTC)

Předpověď počasí

Zpráva byla vytvořena před 58 minutami, v 11:30 UTC
Předpověď platná od 23 v 12 UTC do 23 v 21 UTC
Jižní vítr 10 kt
Viditelnost 10 km a více
Žádná oblačnost pod 1500 m, nevyskytují se cumulonimby.
Změna
od 23 v 19 UTC do 23 v 21 UTC
Východní vítr 5 kt

TAF: ESOE 231130Z 2312/2321 17010KT CAVOK BECMG 2319/2321 09005KT

Stav a předpovědi počasí z více než 4 000 letišť (zprávy METAR a TAF).

Červené a žluté tečky na mapě představují dostupné meteorologické stanice.

Když kurzor umístíte na tečku, zobrazí se název stanice.

Pak kliknutím zobrazíte stav a předpověď počasí.

Chcete-li změnit mapu, kliknutím na zelené tlačítko se znaménkem +mapu přiblížíte, kliknutím na zelené tlačítko se znaménkem – mapu oddálíte a kliknutím na zelené šipky přejdete na sousední mapy.


METAR-TAF: